Pagina principale
METAR-TAF:

METAR-TAF

Aeroporti :

Weno, Micronesia

Aeroporto Internazionale di Chuuk

latitudine: 07-28N, longitudine: 151-51E, altezza: 3 m

Osservazione

Il bollettino è stato emesso 47 minuti fa, alle 04:50 UTC
Vento 12 kt da nord/nord-est
Temperature 30°C
Umidità 79%
Pressione 1003 hPa
Visibilità: 24.1 km
Poco nuvoloso ad un'altezza di 1400 ft
Nubi sparse ad un'altezza di 30000 ft

METAR: PTKK 240450Z 03012KT 15SM FEW014 SCT300 30/26 A2963 RMK SLP035 T03000264

Ora: 15:37 (05:37 UTC)

Previsione

Il bollettino è stato emesso 17 minuti fa, alle 05:20 UTC
Previsione valida dal 24 alle 06 UTC al 25 alle 06 UTC
Vento 12 kt da nord-est
Visibilità: 10 km
Poco nuvoloso ad un'altezza di 2000 ft
Poco nuvoloso ad un'altezza di 5000 ft

TAF: PTKK 240520Z 2406/2506 04012KT P6SM FEW020 FEW050

Osservazioni e previsioni meteorologiche di più di 4000 aeroporti (messaggi METAR e TAF).

Le stazioni disponibili sono rappresentate dai dischi gialli e rossi sulla carta.

Puntare il mouse per vedere il nome della stazione.

Clicca sopra per visualizzare le osservazioni e previsioni meteorologiche.

Per cambiare la mappa : fare clic sui pulsanti verdi con una croce nera per ingrandire, il pulsante verde con un trattino per diminuire, o sulla freccia verde per le mappe adiacenti.


METAR-TAF: